sensor_id;sensor_type;location;lat;lon;timestamp;temperature;humidity
7196;DHT22;3639;51.308;5.624;2022-08-19T00:00:24;18.70;99.90
7196;DHT22;3639;51.308;5.624;2022-08-19T00:02:50;18.60;99.90
7196;DHT22;3639;51.308;5.624;2022-08-19T00:05:16;18.60;99.90
7196;DHT22;3639;51.308;5.624;2022-08-19T00:07:43;18.60;99.90
7196;DHT22;3639;51.308;5.624;2022-08-19T00:10:11;18.50;99.90
7196;DHT22;3639;51.308;5.624;2022-08-19T00:12:37;18.50;99.90
7196;DHT22;3639;51.308;5.624;2022-08-19T00:15:10;18.40;99.90
7196;DHT22;3639;51.308;5.624;2022-08-19T00:17:38;18.40;99.90
7196;DHT22;3639;51.308;5.624;2022-08-19T00:20:05;18.40;99.90
7196;DHT22;3639;51.308;5.624;2022-08-19T00:22:31;18.30;99.90
7196;DHT22;3639;51.308;5.624;2022-08-19T00:24:56;18.20;99.90
7196;DHT22;3639;51.308;5.624;2022-08-19T00:27:22;18.20;99.90
7196;DHT22;3639;51.308;5.624;2022-08-19T00:29:48;18.20;99.90
7196;DHT22;3639;51.308;5.624;2022-08-19T00:32:13;18.20;99.90
7196;DHT22;3639;51.308;5.624;2022-08-19T00:34:39;18.20;99.90
7196;DHT22;3639;51.308;5.624;2022-08-19T00:37:05;18.20;99.90
7196;DHT22;3639;51.308;5.624;2022-08-19T00:39:30;18.20;99.90
7196;DHT22;3639;51.308;5.624;2022-08-19T00:41:56;18.20;99.90
7196;DHT22;3639;51.308;5.624;2022-08-19T00:44:25;18.20;99.90
7196;DHT22;3639;51.308;5.624;2022-08-19T00:46:53;18.20;99.90
7196;DHT22;3639;51.308;5.624;2022-08-19T00:49:24;18.30;99.90
7196;DHT22;3639;51.308;5.624;2022-08-19T00:52:05;18.30;99.90
7196;DHT22;3639;51.308;5.624;2022-08-19T00:54:32;18.30;99.90
7196;DHT22;3639;51.308;5.624;2022-08-19T00:56:59;18.30;99.90
7196;DHT22;3639;51.308;5.624;2022-08-19T00:59:27;18.30;99.90
7196;DHT22;3639;51.308;5.624;2022-08-19T01:01:53;18.30;99.90
7196;DHT22;3639;51.308;5.624;2022-08-19T01:04:19;18.30;99.90
7196;DHT22;3639;51.308;5.624;2022-08-19T01:06:45;18.20;99.90
7196;DHT22;3639;51.308;5.624;2022-08-19T01:09:11;18.20;99.90
7196;DHT22;3639;51.308;5.624;2022-08-19T01:11:40;18.10;99.90
7196;DHT22;3639;51.308;5.624;2022-08-19T01:14:07;18.00;99.90
7196;DHT22;3639;51.308;5.624;2022-08-19T01:16:34;17.90;99.90
7196;DHT22;3639;51.308;5.624;2022-08-19T01:19:00;17.80;99.90
7196;DHT22;3639;51.308;5.624;2022-08-19T01:21:34;17.80;99.90
7196;DHT22;3639;51.308;5.624;2022-08-19T01:24:03;17.80;99.90
7196;DHT22;3639;51.308;5.624;2022-08-19T01:26:29;17.80;99.90
7196;DHT22;3639;51.308;5.624;2022-08-19T01:28:58;17.70;99.90
7196;DHT22;3639;51.308;5.624;2022-08-19T01:31:26;17.70;99.90
7196;DHT22;3639;51.308;5.624;2022-08-19T01:33:56;17.60;99.90
7196;DHT22;3639;51.308;5.624;2022-08-19T01:36:35;17.50;99.90
7196;DHT22;3639;51.308;5.624;2022-08-19T01:39:05;17.50;99.90
7196;DHT22;3639;51.308;5.624;2022-08-19T01:41:31;17.40;99.90
7196;DHT22;3639;51.308;5.624;2022-08-19T01:43:57;17.40;99.90
7196;DHT22;3639;51.308;5.624;2022-08-19T01:46:23;17.40;99.90
7196;DHT22;3639;51.308;5.624;2022-08-19T01:48:48;17.40;99.90
7196;DHT22;3639;51.308;5.624;2022-08-19T01:51:15;17.40;99.90
7196;DHT22;3639;51.308;5.624;2022-08-19T01:53:41;17.40;99.90
7196;DHT22;3639;51.308;5.624;2022-08-19T01:56:07;17.40;99.90
7196;DHT22;3639;51.308;5.624;2022-08-19T01:58:43;17.30;99.90
7196;DHT22;3639;51.308;5.624;2022-08-19T02:01:12;17.30;99.90
7196;DHT22;3639;51.308;5.624;2022-08-19T02:03:38;17.30;99.90
7196;DHT22;3639;51.308;5.624;2022-08-19T02:06:03;17.30;99.90
7196;DHT22;3639;51.308;5.624;2022-08-19T02:08:32;17.20;99.90
7196;DHT22;3639;51.308;5.624;2022-08-19T02:10:58;17.20;99.90
7196;DHT22;3639;51.308;5.624;2022-08-19T02:13:25;17.20;99.90
7196;DHT22;3639;51.308;5.624;2022-08-19T02:15:50;17.20;99.90
7196;DHT22;3639;51.308;5.624;2022-08-19T02:18:16;17.20;99.90
7196;DHT22;3639;51.308;5.624;2022-08-19T02:20:43;17.20;99.90
7196;DHT22;3639;51.308;5.624;2022-08-19T02:23:11;17.10;99.90
7196;DHT22;3639;51.308;5.624;2022-08-19T02:25:38;17.10;99.90
7196;DHT22;3639;51.308;5.624;2022-08-19T02:28:04;17.00;99.90
7196;DHT22;3639;51.308;5.624;2022-08-19T02:30:30;16.90;99.90
7196;DHT22;3639;51.308;5.624;2022-08-19T02:32:55;16.90;99.90
7196;DHT22;3639;51.308;5.624;2022-08-19T02:35:21;16.90;99.90
7196;DHT22;3639;51.308;5.624;2022-08-19T02:37:47;16.90;99.90
7196;DHT22;3639;51.308;5.624;2022-08-19T02:40:32;16.80;99.90
7196;DHT22;3639;51.308;5.624;2022-08-19T02:43:03;16.80;99.90
7196;DHT22;3639;51.308;5.624;2022-08-19T02:45:36;16.70;99.90
7196;DHT22;3639;51.308;5.624;2022-08-19T02:48:03;16.70;99.90
7196;DHT22;3639;51.308;5.624;2022-08-19T02:50:29;16.70;99.90
7196;DHT22;3639;51.308;5.624;2022-08-19T02:52:55;16.80;99.90
7196;DHT22;3639;51.308;5.624;2022-08-19T02:55:20;16.80;99.90
7196;DHT22;3639;51.308;5.624;2022-08-19T02:57:46;16.80;99.90
7196;DHT22;3639;51.308;5.624;2022-08-19T03:00:13;16.80;99.90
7196;DHT22;3639;51.308;5.624;2022-08-19T03:02:39;16.80;99.90
7196;DHT22;3639;51.308;5.624;2022-08-19T03:05:06;16.80;99.90
7196;DHT22;3639;51.308;5.624;2022-08-19T03:07:32;16.80;99.90
7196;DHT22;3639;51.308;5.624;2022-08-19T03:09:58;16.80;99.90
7196;DHT22;3639;51.308;5.624;2022-08-19T03:12:24;16.70;99.90
7196;DHT22;3639;51.308;5.624;2022-08-19T03:14:50;16.70;99.90
7196;DHT22;3639;51.308;5.624;2022-08-19T03:17:16;16.60;99.90
7196;DHT22;3639;51.308;5.624;2022-08-19T03:19:42;16.60;99.90
7196;DHT22;3639;51.308;5.624;2022-08-19T03:22:08;16.60;99.90
7196;DHT22;3639;51.308;5.624;2022-08-19T03:24:34;16.60;99.90
7196;DHT22;3639;51.308;5.624;2022-08-19T03:26:59;16.60;99.90
7196;DHT22;3639;51.308;5.624;2022-08-19T03:29:27;16.50;99.90
7196;DHT22;3639;51.308;5.624;2022-08-19T03:31:53;16.50;99.90
7196;DHT22;3639;51.308;5.624;2022-08-19T03:34:23;16.50;99.90
7196;DHT22;3639;51.308;5.624;2022-08-19T03:36:52;16.50;99.90
7196;DHT22;3639;51.308;5.624;2022-08-19T03:39:19;16.50;99.90
7196;DHT22;3639;51.308;5.624;2022-08-19T03:41:47;16.50;99.90
7196;DHT22;3639;51.308;5.624;2022-08-19T03:44:19;16.50;99.90
7196;DHT22;3639;51.308;5.624;2022-08-19T03:46:57;16.50;99.90
7196;DHT22;3639;51.308;5.624;2022-08-19T03:49:25;16.50;99.90
7196;DHT22;3639;51.308;5.624;2022-08-19T03:51:53;16.50;99.90
7196;DHT22;3639;51.308;5.624;2022-08-19T03:54:21;16.40;99.90
7196;DHT22;3639;51.308;5.624;2022-08-19T03:56:49;16.40;99.90
7196;DHT22;3639;51.308;5.624;2022-08-19T03:59:23;16.40;99.90
7196;DHT22;3639;51.308;5.624;2022-08-19T04:01:50;16.30;99.90
7196;DHT22;3639;51.308;5.624;2022-08-19T04:04:16;16.30;99.90
7196;DHT22;3639;51.308;5.624;2022-08-19T04:06:43;16.30;99.90
7196;DHT22;3639;51.308;5.624;2022-08-19T04:09:10;16.30;99.90
7196;DHT22;3639;51.308;5.624;2022-08-19T04:11:41;16.20;99.90
7196;DHT22;3639;51.308;5.624;2022-08-19T04:14:11;16.30;99.90
7196;DHT22;3639;51.308;5.624;2022-08-19T04:16:38;16.20;99.90
7196;DHT22;3639;51.308;5.624;2022-08-19T04:19:05;16.20;99.90
7196;DHT22;3639;51.308;5.624;2022-08-19T04:21:32;16.10;99.90
7196;DHT22;3639;51.308;5.624;2022-08-19T04:23:58;16.20;99.90
7196;DHT22;3639;51.308;5.624;2022-08-19T04:26:29;16.20;99.90
7196;DHT22;3639;51.308;5.624;2022-08-19T04:29:04;16.20;99.90
7196;DHT22;3639;51.308;5.624;2022-08-19T04:31:32;16.20;99.90
7196;DHT22;3639;51.308;5.624;2022-08-19T04:34:03;16.10;99.90
7196;DHT22;3639;51.308;5.624;2022-08-19T04:36:32;16.10;99.90
7196;DHT22;3639;51.308;5.624;2022-08-19T04:39:02;16.10;99.90
7196;DHT22;3639;51.308;5.624;2022-08-19T04:41:28;16.10;99.90
7196;DHT22;3639;51.308;5.624;2022-08-19T04:44:13;16.10;99.90
7196;DHT22;3639;51.308;5.624;2022-08-19T04:46:40;16.10;99.90
7196;DHT22;3639;51.308;5.624;2022-08-19T04:49:06;16.10;99.90
7196;DHT22;3639;51.308;5.624;2022-08-19T04:51:34;16.10;99.90
7196;DHT22;3639;51.308;5.624;2022-08-19T04:54:02;16.10;99.90
7196;DHT22;3639;51.308;5.624;2022-08-19T04:56:28;16.10;99.90
7196;DHT22;3639;51.308;5.624;2022-08-19T04:58:55;16.10;99.90
7196;DHT22;3639;51.308;5.624;2022-08-19T05:01:25;16.10;99.90
7196;DHT22;3639;51.308;5.624;2022-08-19T05:03:53;16.10;99.90
7196;DHT22;3639;51.308;5.624;2022-08-19T05:06:20;16.10;99.90
7196;DHT22;3639;51.308;5.624;2022-08-19T05:08:47;16.20;99.90
7196;DHT22;3639;51.308;5.624;2022-08-19T05:11:19;16.20;99.90
7196;DHT22;3639;51.308;5.624;2022-08-19T05:13:46;16.20;99.90
7196;DHT22;3639;51.308;5.624;2022-08-19T05:16:15;16.20;99.90
7196;DHT22;3639;51.308;5.624;2022-08-19T05:18:41;16.20;99.90
7196;DHT22;3639;51.308;5.624;2022-08-19T05:21:27;16.20;99.90
7196;DHT22;3639;51.308;5.624;2022-08-19T05:24:12;16.30;99.90
7196;DHT22;3639;51.308;5.624;2022-08-19T05:26:42;16.40;99.90
7196;DHT22;3639;51.308;5.624;2022-08-19T05:29:08;16.40;99.90
7196;DHT22;3639;51.308;5.624;2022-08-19T05:31:35;16.50;99.90
7196;DHT22;3639;51.308;5.624;2022-08-19T05:34:02;16.50;99.90
7196;DHT22;3639;51.308;5.624;2022-08-19T05:36:32;16.50;99.90
7196;DHT22;3639;51.308;5.624;2022-08-19T05:38:59;16.60;99.90
7196;DHT22;3639;51.308;5.624;2022-08-19T05:41:26;16.70;99.90
7196;DHT22;3639;51.308;5.624;2022-08-19T05:44:02;16.70;99.90
7196;DHT22;3639;51.308;5.624;2022-08-19T05:46:28;16.90;99.90
7196;DHT22;3639;51.308;5.624;2022-08-19T05:48:54;17.00;99.90
7196;DHT22;3639;51.308;5.624;2022-08-19T05:51:22;17.10;99.90
7196;DHT22;3639;51.308;5.624;2022-08-19T05:53:48;17.20;99.90
7196;DHT22;3639;51.308;5.624;2022-08-19T05:56:16;17.20;99.90
7196;DHT22;3639;51.308;5.624;2022-08-19T05:58:42;17.30;99.90
7196;DHT22;3639;51.308;5.624;2022-08-19T06:01:13;17.40;99.90
7196;DHT22;3639;51.308;5.624;2022-08-19T06:03:39;17.50;99.90
7196;DHT22;3639;51.308;5.624;2022-08-19T06:06:06;17.50;99.90
7196;DHT22;3639;51.308;5.624;2022-08-19T06:08:33;17.50;99.90
7196;DHT22;3639;51.308;5.624;2022-08-19T06:11:25;17.60;99.90
7196;DHT22;3639;51.308;5.624;2022-08-19T06:14:02;17.60;99.90
7196;DHT22;3639;51.308;5.624;2022-08-19T06:16:28;17.60;99.90
7196;DHT22;3639;51.308;5.624;2022-08-19T06:18:58;17.80;99.90
7196;DHT22;3639;51.308;5.624;2022-08-19T06:21:27;17.90;99.90
7196;DHT22;3639;51.308;5.624;2022-08-19T06:23:54;17.90;99.90
7196;DHT22;3639;51.308;5.624;2022-08-19T06:26:20;18.00;99.90
7196;DHT22;3639;51.308;5.624;2022-08-19T06:28:48;18.00;99.90
7196;DHT22;3639;51.308;5.624;2022-08-19T06:31:16;18.10;99.90
7196;DHT22;3639;51.308;5.624;2022-08-19T06:33:43;18.10;99.90
7196;DHT22;3639;51.308;5.624;2022-08-19T06:36:21;18.20;99.90
7196;DHT22;3639;51.308;5.624;2022-08-19T06:38:47;18.20;99.90
7196;DHT22;3639;51.308;5.624;2022-08-19T06:41:13;18.30;99.90
7196;DHT22;3639;51.308;5.624;2022-08-19T06:43:39;18.30;99.90
7196;DHT22;3639;51.308;5.624;2022-08-19T06:46:10;18.40;99.90
7196;DHT22;3639;51.308;5.624;2022-08-19T06:48:37;18.50;99.90
7196;DHT22;3639;51.308;5.624;2022-08-19T06:51:03;18.60;99.90
7196;DHT22;3639;51.308;5.624;2022-08-19T06:53:30;18.70;99.90
7196;DHT22;3639;51.308;5.624;2022-08-19T06:55:56;18.80;99.90
7196;DHT22;3639;51.308;5.624;2022-08-19T06:58:25;18.90;99.90
7196;DHT22;3639;51.308;5.624;2022-08-19T07:00:51;18.90;99.90
7196;DHT22;3639;51.308;5.624;2022-08-19T07:03:17;19.00;99.90
7196;DHT22;3639;51.308;5.624;2022-08-19T07:05:43;19.10;99.90
7196;DHT22;3639;51.308;5.624;2022-08-19T07:08:09;19.10;99.90
7196;DHT22;3639;51.308;5.624;2022-08-19T07:10:35;19.20;99.90
7196;DHT22;3639;51.308;5.624;2022-08-19T07:13:02;19.20;99.90
7196;DHT22;3639;51.308;5.624;2022-08-19T07:15:28;19.30;99.90
7196;DHT22;3639;51.308;5.624;2022-08-19T07:17:54;19.40;99.90
7196;DHT22;3639;51.308;5.624;2022-08-19T07:20:20;19.50;99.90
7196;DHT22;3639;51.308;5.624;2022-08-19T07:22:45;19.70;99.90
7196;DHT22;3639;51.308;5.624;2022-08-19T07:25:11;19.80;99.90
7196;DHT22;3639;51.308;5.624;2022-08-19T07:27:38;19.90;99.90
7196;DHT22;3639;51.308;5.624;2022-08-19T07:30:04;20.00;99.90
7196;DHT22;3639;51.308;5.624;2022-08-19T07:32:30;20.00;99.90
7196;DHT22;3639;51.308;5.624;2022-08-19T07:34:56;20.10;99.90
7196;DHT22;3639;51.308;5.624;2022-08-19T07:37:22;20.30;99.90
7196;DHT22;3639;51.308;5.624;2022-08-19T07:39:48;20.30;99.90
7196;DHT22;3639;51.308;5.624;2022-08-19T07:42:13;20.40;99.90
7196;DHT22;3639;51.308;5.624;2022-08-19T07:44:40;20.50;99.90
7196;DHT22;3639;51.308;5.624;2022-08-19T07:47:06;20.60;99.90
7196;DHT22;3639;51.308;5.624;2022-08-19T07:49:32;20.70;99.90
7196;DHT22;3639;51.308;5.624;2022-08-19T07:52:01;20.70;99.90
7196;DHT22;3639;51.308;5.624;2022-08-19T07:54:30;20.80;99.90
7196;DHT22;3639;51.308;5.624;2022-08-19T07:56:56;20.90;99.90
7196;DHT22;3639;51.308;5.624;2022-08-19T07:59:23;20.90;99.90
7196;DHT22;3639;51.308;5.624;2022-08-19T08:01:49;21.00;99.90
7196;DHT22;3639;51.308;5.624;2022-08-19T08:04:16;21.20;99.90
7196;DHT22;3639;51.308;5.624;2022-08-19T08:07:01;21.30;99.90
7196;DHT22;3639;51.308;5.624;2022-08-19T08:09:45;21.40;99.90
7196;DHT22;3639;51.308;5.624;2022-08-19T08:12:15;21.50;99.90
7196;DHT22;3639;51.308;5.624;2022-08-19T08:14:47;21.60;99.90
7196;DHT22;3639;51.308;5.624;2022-08-19T08:17:14;21.60;99.90
7196;DHT22;3639;51.308;5.624;2022-08-19T08:19:42;21.70;99.90
7196;DHT22;3639;51.308;5.624;2022-08-19T08:22:09;21.80;99.90
7196;DHT22;3639;51.308;5.624;2022-08-19T08:24:55;21.90;99.90
7196;DHT22;3639;51.308;5.624;2022-08-19T08:27:23;22.00;99.90
7196;DHT22;3639;51.308;5.624;2022-08-19T08:29:49;22.00;99.90
7196;DHT22;3639;51.308;5.624;2022-08-19T08:32:15;22.20;99.90
7196;DHT22;3639;51.308;5.624;2022-08-19T08:34:41;22.30;99.90
7196;DHT22;3639;51.308;5.624;2022-08-19T08:37:07;22.60;99.90
7196;DHT22;3639;51.308;5.624;2022-08-19T08:39:32;22.70;99.90
7196;DHT22;3639;51.308;5.624;2022-08-19T08:42:15;22.90;99.90
7196;DHT22;3639;51.308;5.624;2022-08-19T08:45:06;22.90;99.90
7196;DHT22;3639;51.308;5.624;2022-08-19T08:47:36;23.00;99.90
7196;DHT22;3639;51.308;5.624;2022-08-19T08:50:18;22.90;99.90
7196;DHT22;3639;51.308;5.624;2022-08-19T08:52:47;22.70;99.90
7196;DHT22;3639;51.308;5.624;2022-08-19T08:55:17;22.50;99.90
7196;DHT22;3639;51.308;5.624;2022-08-19T08:57:57;22.30;99.90
7196;DHT22;3639;51.308;5.624;2022-08-19T09:00:28;22.20;99.90
7196;DHT22;3639;51.308;5.624;2022-08-19T09:02:56;22.30;99.90
7196;DHT22;3639;51.308;5.624;2022-08-19T09:05:51;22.50;99.90
7196;DHT22;3639;51.308;5.624;2022-08-19T09:09:04;22.60;99.90
7196;DHT22;3639;51.308;5.624;2022-08-19T09:11:08;22.80;99.90
7196;DHT22;3639;51.308;5.624;2022-08-19T09:16:27;23.10;99.90
7196;DHT22;3639;51.308;5.624;2022-08-19T09:18:57;23.10;99.90
7196;DHT22;3639;51.308;5.624;2022-08-19T09:21:25;23.20;99.90
7196;DHT22;3639;51.308;5.624;2022-08-19T09:23:51;23.30;99.90
7196;DHT22;3639;51.308;5.624;2022-08-19T09:26:20;23.30;99.90
7196;DHT22;3639;51.308;5.624;2022-08-19T09:28:48;23.40;99.90
7196;DHT22;3639;51.308;5.624;2022-08-19T09:31:22;23.40;99.90
7196;DHT22;3639;51.308;5.624;2022-08-19T09:33:49;23.50;99.90
7196;DHT22;3639;51.308;5.624;2022-08-19T09:36:16;23.60;99.90
7196;DHT22;3639;51.308;5.624;2022-08-19T09:38:42;23.60;99.90
7196;DHT22;3639;51.308;5.624;2022-08-19T09:41:16;23.70;99.90
7196;DHT22;3639;51.308;5.624;2022-08-19T09:43:45;23.80;99.90
7196;DHT22;3639;51.308;5.624;2022-08-19T09:46:11;23.80;99.90
7196;DHT22;3639;51.308;5.624;2022-08-19T09:48:38;24.00;99.90
7196;DHT22;3639;51.308;5.624;2022-08-19T09:51:05;23.90;99.90
7196;DHT22;3639;51.308;5.624;2022-08-19T09:53:32;24.00;99.90
7196;DHT22;3639;51.308;5.624;2022-08-19T09:55:57;24.10;99.90
7196;DHT22;3639;51.308;5.624;2022-08-19T09:58:23;24.30;99.90
7196;DHT22;3639;51.308;5.624;2022-08-19T10:00:54;24.40;99.90
7196;DHT22;3639;51.308;5.624;2022-08-19T10:03:19;24.50;99.90
7196;DHT22;3639;51.308;5.624;2022-08-19T10:05:45;24.50;99.90
7196;DHT22;3639;51.308;5.624;2022-08-19T10:08:21;24.70;99.90
7196;DHT22;3639;51.308;5.624;2022-08-19T10:10:49;24.70;99.90
7196;DHT22;3639;51.308;5.624;2022-08-19T10:13:18;24.80;99.90
7196;DHT22;3639;51.308;5.624;2022-08-19T10:15:47;25.10;99.90
7196;DHT22;3639;51.308;5.624;2022-08-19T10:18:16;25.30;99.90
7196;DHT22;3639;51.308;5.624;2022-08-19T10:20:43;25.30;99.90
7196;DHT22;3639;51.308;5.624;2022-08-19T10:23:11;25.60;99.90
7196;DHT22;3639;51.308;5.624;2022-08-19T10:25:37;25.80;99.90
7196;DHT22;3639;51.308;5.624;2022-08-19T10:28:03;26.00;99.90
7196;DHT22;3639;51.308;5.624;2022-08-19T10:30:31;26.10;99.90
7196;DHT22;3639;51.308;5.624;2022-08-19T10:32:57;26.00;99.90
7196;DHT22;3639;51.308;5.624;2022-08-19T10:35:23;26.20;99.90
7196;DHT22;3639;51.308;5.624;2022-08-19T10:37:50;26.30;99.90
7196;DHT22;3639;51.308;5.624;2022-08-19T10:40:15;26.50;99.90
7196;DHT22;3639;51.308;5.624;2022-08-19T10:42:41;26.40;99.90
7196;DHT22;3639;51.308;5.624;2022-08-19T10:45:07;26.10;99.90
7196;DHT22;3639;51.308;5.624;2022-08-19T10:47:35;26.00;99.90
7196;DHT22;3639;51.308;5.624;2022-08-19T10:50:01;26.10;99.90
7196;DHT22;3639;51.308;5.624;2022-08-19T10:52:48;26.00;99.90
7196;DHT22;3639;51.308;5.624;2022-08-19T10:55:13;25.90;99.90
7196;DHT22;3639;51.308;5.624;2022-08-19T10:57:58;25.80;99.90
7196;DHT22;3639;51.308;5.624;2022-08-19T11:00:24;25.70;99.90
7196;DHT22;3639;51.308;5.624;2022-08-19T11:02:51;25.80;99.90
7196;DHT22;3639;51.308;5.624;2022-08-19T11:05:17;26.00;99.90
7196;DHT22;3639;51.308;5.624;2022-08-19T11:07:43;26.00;99.90
7196;DHT22;3639;51.308;5.624;2022-08-19T11:10:12;26.10;99.90
7196;DHT22;3639;51.308;5.624;2022-08-19T11:12:39;26.40;99.90
7196;DHT22;3639;51.308;5.624;2022-08-19T11:15:09;26.60;99.90
7196;DHT22;3639;51.308;5.624;2022-08-19T11:17:39;26.70;99.90
7196;DHT22;3639;51.308;5.624;2022-08-19T11:20:11;26.40;99.90
7196;DHT22;3639;51.308;5.624;2022-08-19T11:22:37;26.10;99.90
7196;DHT22;3639;51.308;5.624;2022-08-19T11:25:04;26.00;99.90
7196;DHT22;3639;51.308;5.624;2022-08-19T11:27:30;26.20;99.90
7196;DHT22;3639;51.308;5.624;2022-08-19T11:29:55;26.40;99.90
7196;DHT22;3639;51.308;5.624;2022-08-19T11:32:21;26.20;99.90
7196;DHT22;3639;51.308;5.624;2022-08-19T11:34:47;25.90;99.90
7196;DHT22;3639;51.308;5.624;2022-08-19T11:37:12;25.60;99.90
7196;DHT22;3639;51.308;5.624;2022-08-19T11:39:38;25.40;99.90
7196;DHT22;3639;51.308;5.624;2022-08-19T11:42:05;25.40;99.90
7196;DHT22;3639;51.308;5.624;2022-08-19T11:44:51;25.30;99.90
7196;DHT22;3639;51.308;5.624;2022-08-19T11:47:18;25.20;99.90
7196;DHT22;3639;51.308;5.624;2022-08-19T11:49:43;25.30;99.90
7196;DHT22;3639;51.308;5.624;2022-08-19T11:52:10;25.40;99.90
7196;DHT22;3639;51.308;5.624;2022-08-19T11:54:36;25.60;99.90
7196;DHT22;3639;51.308;5.624;2022-08-19T11:57:03;25.70;99.90
7196;DHT22;3639;51.308;5.624;2022-08-19T11:59:28;25.70;99.90
7196;DHT22;3639;51.308;5.624;2022-08-19T12:01:55;25.90;99.90
7196;DHT22;3639;51.308;5.624;2022-08-19T12:04:21;26.10;99.90
7196;DHT22;3639;51.308;5.624;2022-08-19T12:06:47;26.10;99.90
7196;DHT22;3639;51.308;5.624;2022-08-19T12:09:13;26.20;99.90
7196;DHT22;3639;51.308;5.624;2022-08-19T12:11:41;26.10;99.90
7196;DHT22;3639;51.308;5.624;2022-08-19T12:14:09;25.80;99.90
7196;DHT22;3639;51.308;5.624;2022-08-19T12:16:35;25.70;99.90
7196;DHT22;3639;51.308;5.624;2022-08-19T12:19:04;25.60;99.90
7196;DHT22;3639;51.308;5.624;2022-08-19T12:21:32;25.60;99.90
7196;DHT22;3639;51.308;5.624;2022-08-19T12:24:00;25.70;99.90
7196;DHT22;3639;51.308;5.624;2022-08-19T12:26:27;25.80;99.90
7196;DHT22;3639;51.308;5.624;2022-08-19T12:28:54;25.80;99.90
7196;DHT22;3639;51.308;5.624;2022-08-19T12:31:20;26.00;99.90
7196;DHT22;3639;51.308;5.624;2022-08-19T12:33:46;26.20;99.90
7196;DHT22;3639;51.308;5.624;2022-08-19T12:36:14;26.50;99.90
7196;DHT22;3639;51.308;5.624;2022-08-19T12:38:41;26.60;99.90
7196;DHT22;3639;51.308;5.624;2022-08-19T12:41:10;26.70;99.90
7196;DHT22;3639;51.308;5.624;2022-08-19T12:43:36;26.70;99.90
7196;DHT22;3639;51.308;5.624;2022-08-19T12:46:04;26.60;99.90
7196;DHT22;3639;51.308;5.624;2022-08-19T12:48:31;26.40;99.90
7196;DHT22;3639;51.308;5.624;2022-08-19T12:50:56;26.50;99.90
7196;DHT22;3639;51.308;5.624;2022-08-19T12:53:22;26.60;99.90
7196;DHT22;3639;51.308;5.624;2022-08-19T12:55:53;26.80;99.90
7196;DHT22;3639;51.308;5.624;2022-08-19T12:58:21;26.80;99.90
7196;DHT22;3639;51.308;5.624;2022-08-19T13:00:47;26.80;99.90
7196;DHT22;3639;51.308;5.624;2022-08-19T13:03:14;26.70;99.90
7196;DHT22;3639;51.308;5.624;2022-08-19T13:05:40;26.50;99.90
7196;DHT22;3639;51.308;5.624;2022-08-19T13:08:06;26.50;99.90
7196;DHT22;3639;51.308;5.624;2022-08-19T13:10:34;26.40;99.90
7196;DHT22;3639;51.308;5.624;2022-08-19T13:13:05;26.50;99.90
7196;DHT22;3639;51.308;5.624;2022-08-19T13:15:37;26.40;99.90
7196;DHT22;3639;51.308;5.624;2022-08-19T13:18:05;26.30;99.90
7196;DHT22;3639;51.308;5.624;2022-08-19T13:20:31;26.40;99.90
7196;DHT22;3639;51.308;5.624;2022-08-19T13:22:56;26.50;99.90
7196;DHT22;3639;51.308;5.624;2022-08-19T13:25:22;26.50;99.90
7196;DHT22;3639;51.308;5.624;2022-08-19T13:27:49;26.50;99.90
7196;DHT22;3639;51.308;5.624;2022-08-19T13:30:17;26.60;99.90
7196;DHT22;3639;51.308;5.624;2022-08-19T13:33:01;26.60;99.90
7196;DHT22;3639;51.308;5.624;2022-08-19T13:35:37;26.40;99.90
7196;DHT22;3639;51.308;5.624;2022-08-19T13:38:03;26.50;99.90
7196;DHT22;3639;51.308;5.624;2022-08-19T13:40:30;26.70;99.90
7196;DHT22;3639;51.308;5.624;2022-08-19T13:43:00;26.90;99.90
7196;DHT22;3639;51.308;5.624;2022-08-19T13:45:28;27.10;99.90
7196;DHT22;3639;51.308;5.624;2022-08-19T13:47:55;27.10;99.90
7196;DHT22;3639;51.308;5.624;2022-08-19T13:50:27;27.00;99.90
7196;DHT22;3639;51.308;5.624;2022-08-19T13:52:54;27.10;99.90
7196;DHT22;3639;51.308;5.624;2022-08-19T13:55:21;27.30;99.90
7196;DHT22;3639;51.308;5.624;2022-08-19T13:57:51;27.30;99.90
7196;DHT22;3639;51.308;5.624;2022-08-19T14:00:18;27.00;99.90
7196;DHT22;3639;51.308;5.624;2022-08-19T14:02:45;26.60;99.90
7196;DHT22;3639;51.308;5.624;2022-08-19T14:05:14;26.60;99.90
7196;DHT22;3639;51.308;5.624;2022-08-19T14:07:40;26.80;99.90
7196;DHT22;3639;51.308;5.624;2022-08-19T14:10:08;26.90;99.90
7196;DHT22;3639;51.308;5.624;2022-08-19T14:12:34;27.00;99.90
7196;DHT22;3639;51.308;5.624;2022-08-19T14:15:01;27.00;99.90
7196;DHT22;3639;51.308;5.624;2022-08-19T14:17:28;26.90;99.90
7196;DHT22;3639;51.308;5.624;2022-08-19T14:19:57;26.80;99.90
7196;DHT22;3639;51.308;5.624;2022-08-19T14:22:23;26.80;99.90
7196;DHT22;3639;51.308;5.624;2022-08-19T14:24:49;26.60;99.90
7196;DHT22;3639;51.308;5.624;2022-08-19T14:27:15;26.50;99.90
7196;DHT22;3639;51.308;5.624;2022-08-19T14:29:41;26.40;99.90
7196;DHT22;3639;51.308;5.624;2022-08-19T14:32:07;26.30;99.90
7196;DHT22;3639;51.308;5.624;2022-08-19T14:34:32;26.30;99.90
7196;DHT22;3639;51.308;5.624;2022-08-19T14:36:59;26.20;99.90
7196;DHT22;3639;51.308;5.624;2022-08-19T14:39:24;26.30;99.90
7196;DHT22;3639;51.308;5.624;2022-08-19T14:41:50;26.40;99.90
7196;DHT22;3639;51.308;5.624;2022-08-19T14:44:16;26.60;99.90
7196;DHT22;3639;51.308;5.624;2022-08-19T14:46:41;26.70;99.90
7196;DHT22;3639;51.308;5.624;2022-08-19T14:49:07;26.80;99.90
7196;DHT22;3639;51.308;5.624;2022-08-19T14:51:33;27.00;99.90
7196;DHT22;3639;51.308;5.624;2022-08-19T14:53:59;27.00;99.90
7196;DHT22;3639;51.308;5.624;2022-08-19T14:56:27;27.10;99.90
7196;DHT22;3639;51.308;5.624;2022-08-19T14:58:54;27.10;99.90
7196;DHT22;3639;51.308;5.624;2022-08-19T15:01:21;27.00;99.90
7196;DHT22;3639;51.308;5.624;2022-08-19T15:03:48;27.00;99.90
7196;DHT22;3639;51.308;5.624;2022-08-19T15:06:14;27.00;99.90
7196;DHT22;3639;51.308;5.624;2022-08-19T15:08:41;26.90;99.90
7196;DHT22;3639;51.308;5.624;2022-08-19T15:11:13;26.80;99.90
7196;DHT22;3639;51.308;5.624;2022-08-19T15:13:40;26.80;99.90
7196;DHT22;3639;51.308;5.624;2022-08-19T15:16:06;26.70;99.90
7196;DHT22;3639;51.308;5.624;2022-08-19T15:18:32;26.60;99.90
7196;DHT22;3639;51.308;5.624;2022-08-19T15:20:58;26.50;99.90
7196;DHT22;3639;51.308;5.624;2022-08-19T15:23:25;26.40;99.90
7196;DHT22;3639;51.308;5.624;2022-08-19T15:25:50;26.20;99.90
7196;DHT22;3639;51.308;5.624;2022-08-19T15:28:22;26.10;99.90
7196;DHT22;3639;51.308;5.624;2022-08-19T15:30:48;26.10;99.90
7196;DHT22;3639;51.308;5.624;2022-08-19T15:33:13;26.00;99.90
7196;DHT22;3639;51.308;5.624;2022-08-19T15:35:43;26.00;99.90
7196;DHT22;3639;51.308;5.624;2022-08-19T15:38:09;26.00;99.90
7196;DHT22;3639;51.308;5.624;2022-08-19T15:40:36;26.10;99.90
7196;DHT22;3639;51.308;5.624;2022-08-19T15:43:01;26.20;99.90
7196;DHT22;3639;51.308;5.624;2022-08-19T15:45:27;26.30;99.90
7196;DHT22;3639;51.308;5.624;2022-08-19T15:47:57;26.40;99.90
7196;DHT22;3639;51.308;5.624;2022-08-19T15:50:23;26.50;99.90
7196;DHT22;3639;51.308;5.624;2022-08-19T15:52:52;26.50;99.90
7196;DHT22;3639;51.308;5.624;2022-08-19T15:55:20;26.60;99.90
7196;DHT22;3639;51.308;5.624;2022-08-19T15:57:46;26.70;99.90
7196;DHT22;3639;51.308;5.624;2022-08-19T16:00:31;26.80;99.90
7196;DHT22;3639;51.308;5.624;2022-08-19T16:03:15;26.80;99.90
7196;DHT22;3639;51.308;5.624;2022-08-19T16:06:00;26.80;99.90
7196;DHT22;3639;51.308;5.624;2022-08-19T16:08:44;26.70;99.90
7196;DHT22;3639;51.308;5.624;2022-08-19T16:11:11;26.80;99.90